Dades meteomassalio
Diari Summary for Febrer 25, 2018 Units:  Metric    English   Both
« Previous Day
Next Day »
Diari Semanal Mensual Anual Personalitzat
  Maxima: Minima: Mijana:
Temperatura: -17.8 °C -20.6 °C -15.9 °C
Rosada: -17.8 °C -23.8 °C -19.9 °C
Humitat: Humidity % 35 % 63 %
Velocitat del vent: 0 km/h 0 km/h 10.9 km/h
Racha vent: 0 km/h - -
Vent:- - WSW
Pressio: 0 hPa 34279.9 hPa -
Pluja: 0 mm    
Historical Graphs
 
 
Tabular Data for Febrer 25, 2018
Time Temperature Dew Point Pressure Wind Wind Speed Wind Gust Humidity Rainfall Rate (Hourly) solar Conditions
-17.8 °C -17.8 °C 0 hPa Calm     Humidity % 0 mm SolarRadiationWatts/m^2 W/m2 Conditions
00:01 -19.3 °C -20.6 °C 34337.4 hPa Calm     84 % 0 mm 0.0 W/m2 CLR
00:06 -19.3 °C -20.6 °C 34337.4 hPa Calm     84 % 0 mm 0.0 W/m2 CLR
00:11 -19.3 °C -20.6 °C 34337.4 hPa Calm     84 % 0 mm 0.0 W/m2 CLR
00:16 -19.3 °C -20.6 °C 34327.3 hPa Calm     84 % 0 mm 0.0 W/m2 CLR
00:21 -19.3 °C -20.5 °C 34337.4 hPa Calm     85 % 0 mm 0.0 W/m2 CLR
00:27 -19 °C -20.2 °C 34337.4 hPa Calm     85 % 0 mm 0.0 W/m2 CLR
00:32 -19 °C -20.2 °C 34337.4 hPa Calm     85 % 0 mm 0.0 W/m2 CLR
00:37 -19.3 °C -20.6 °C 34337.4 hPa Calm     84 % 0 mm 0.0 W/m2 CLR
00:42 -19.3 °C -20.5 °C 34337.4 hPa Calm     85 % 0 mm 0.0 W/m2 CLR
00:47 -19.3 °C -20.5 °C 34337.4 hPa Calm     85 % 0 mm 0.0 W/m2 CLR
00:52 -19.3 °C -20.5 °C 34337.4 hPa Calm     85 % 0 mm 0.0 W/m2 CLR
00:57 -19.3 °C -20.5 °C 34337.4 hPa Calm     85 % 0 mm 0.0 W/m2 CLR
01:02 -19.3 °C -20.5 °C 34337.4 hPa Calm     85 % 0 mm 0.0 W/m2 CLR
01:08 -19.3 °C -20.4 °C 34337.4 hPa Calm     86 % 0 mm 0.0 W/m2 CLR
01:13 -19.6 °C -20.7 °C 34337.4 hPa Calm     86 % 0 mm 0.0 W/m2 CLR
01:18 -19.6 °C -20.7 °C 34337.4 hPa Calm     86 % 0 mm 0.0 W/m2 CLR
01:23 -19.6 °C -20.7 °C 34337.4 hPa Calm     86 % 0 mm 0.0 W/m2 CLR
01:28 -19.6 °C -20.7 °C 34327.3 hPa Calm     86 % 0 mm 0.0 W/m2 CLR
01:33 -19.6 °C -20.7 °C 34337.4 hPa Calm     86 % 0 mm 0.0 W/m2 CLR
01:38 -19.6 °C -20.7 °C 34327.3 hPa Calm     86 % 0 mm 0.0 W/m2 CLR
01:43 -19.6 °C -20.7 °C 34327.3 hPa Calm     86 % 0 mm 0.0 W/m2 CLR
01:48 -19.6 °C -20.7 °C 34337.4 hPa Calm     86 % 0 mm 0.0 W/m2 CLR
01:53 -19.6 °C -20.7 °C 34337.4 hPa Calm     86 % 0 mm 0.0 W/m2 CLR
01:58 -19.6 °C -20.7 °C 34337.4 hPa Calm     86 % 0 mm 0.0 W/m2 CLR
02:03 -19.6 °C -20.7 °C 34337.4 hPa Calm     86 % 0 mm 0.0 W/m2 CLR
02:08 -19.6 °C -20.7 °C 34337.4 hPa Calm     86 % 0 mm 0.0 W/m2 CLR
02:13 -19.6 °C -20.7 °C 34337.4 hPa Calm     87 % 0 mm 0.0 W/m2 CLR
02:18 -19.6 °C -20.7 °C 34337.4 hPa Calm     87 % 0 mm 0.0 W/m2 CLR
02:23 -19.6 °C -20.7 °C 34337.4 hPa Calm     87 % 0 mm 0.0 W/m2 CLR
02:28 -19.6 °C -20.7 °C 34337.4 hPa Calm     87 % 0 mm 0.0 W/m2 CLR
02:33 -19.6 °C -20.7 °C 34337.4 hPa Calm     87 % 0 mm 0.0 W/m2 CLR
02:38 -19.6 °C -20.7 °C 34347.6 hPa Calm     87 % 0 mm 0.0 W/m2 CLR
02:43 -19.6 °C -20.7 °C 34347.6 hPa Calm     87 % 0 mm 0.0 W/m2 CLR
02:48 -19.6 °C -20.7 °C 34347.6 hPa Calm     87 % 0 mm 0.0 W/m2 CLR
02:53 -19.6 °C -20.7 °C 34347.6 hPa Calm     87 % 0 mm 0.0 W/m2 CLR
02:58 -19.6 °C -20.7 °C 34347.6 hPa Calm     87 % 0 mm 0.0 W/m2 CLR
03:03 -19.9 °C -20.9 °C 34347.6 hPa Calm     88 % 0 mm 0.0 W/m2 CLR
03:08 -19.9 °C -20.9 °C 34347.6 hPa Calm     88 % 0 mm 0.0 W/m2 CLR
03:13 -19.9 °C -20.9 °C 34347.6 hPa Calm     87 % 0 mm 0.0 W/m2 CLR
03:18 -19.9 °C -20.9 °C 34347.6 hPa Calm     88 % 0 mm 0.0 W/m2 CLR
03:23 -19.9 °C -20.9 °C 34347.6 hPa Calm     88 % 0 mm 0.0 W/m2 CLR
03:28 -19.9 °C -20.9 °C 34347.6 hPa Calm     88 % 0 mm 0.0 W/m2 CLR
03:33 -19.9 °C -20.9 °C 34347.6 hPa Calm     88 % 0 mm 0.0 W/m2 CLR
03:38 -19.6 °C -20.6 °C 34347.6 hPa Calm     88 % 0 mm 0.0 W/m2 CLR
03:43 -19.6 °C -20.6 °C 34347.6 hPa Calm     88 % 0 mm 0.0 W/m2 CLR
03:48 -19.6 °C -20.6 °C 34347.6 hPa Calm     88 % 0 mm 0.0 W/m2 CLR
03:53 -19.9 °C -20.8 °C 34347.6 hPa Calm     89 % 0 mm 0.0 W/m2 CLR
03:58 -19.9 °C -20.8 °C 34347.6 hPa Calm     89 % 0 mm 0.0 W/m2 CLR
04:03 -19.9 °C -20.8 °C 34347.6 hPa Calm     89 % 0 mm 0.0 W/m2 CLR
04:08 -19.9 °C -20.9 °C 34347.6 hPa Calm     88 % 0 mm 0.0 W/m2 CLR
04:13 -19.9 °C -20.9 °C 34347.6 hPa Calm     88 % 0 mm 0.0 W/m2 CLR
04:18 -19.9 °C -20.8 °C 34347.6 hPa Calm     89 % 0 mm 0.0 W/m2 CLR
04:23 -19.9 °C -20.9 °C 34347.6 hPa Calm     88 % 0 mm 0.0 W/m2 CLR
04:28 -19.9 °C -20.9 °C 34347.6 hPa Calm     88 % 0 mm 0.0 W/m2 CLR
04:33 -19.9 °C -20.8 °C 34347.6 hPa Calm     89 % 0 mm 0.0 W/m2 CLR
04:38 -19.9 °C -20.8 °C 34347.6 hPa Calm     89 % 0 mm 0.0 W/m2 CLR
04:43 -20.2 °C -21.1 °C 34347.6 hPa Calm     89 % 0 mm 0.0 W/m2 CLR
04:48 -20.2 °C -21.1 °C 34347.6 hPa Calm     89 % 0 mm 0.0 W/m2 CLR
04:53 -20.2 °C -21.1 °C 34347.6 hPa Calm     89 % 0 mm 0.0 W/m2 CLR
04:58 -20.2 °C -21.1 °C 34347.6 hPa Calm     89 % 0 mm 0.0 W/m2 CLR
05:03 -20.2 °C -21.1 °C 34347.6 hPa Calm     89 % 0 mm 0.0 W/m2 CLR
05:08 -20.2 °C -21.1 °C 34347.6 hPa Calm     89 % 0 mm 0.0 W/m2 CLR
05:13 -20.2 °C -21.1 °C 34347.6 hPa Calm     89 % 0 mm 0.0 W/m2 CLR
05:19 -20.6 °C -21.4 °C 34347.6 hPa Calm     89 % 0 mm 0.0 W/m2 CLR
05:23 -20.2 °C -21.1 °C 34347.6 hPa Calm     89 % 0 mm 0.0 W/m2 CLR
05:29 -20.2 °C -21.1 °C 34347.6 hPa Calm     89 % 0 mm 0.0 W/m2 CLR
05:34 -20.2 °C -21.1 °C 34347.6 hPa Calm     89 % 0 mm 0.0 W/m2 CLR
05:39 -20.2 °C -21.1 °C 34347.6 hPa Calm     89 % 0 mm 0.0 W/m2 CLR
05:44 -20.2 °C -21.1 °C 34347.6 hPa Calm     89 % 0 mm 0.0 W/m2 CLR
05:49 -20.2 °C -21.1 °C 34347.6 hPa Calm     89 % 0 mm 0.0 W/m2 CLR
05:54 -20.2 °C -21.1 °C 34347.6 hPa Calm     89 % 0 mm 0.0 W/m2 CLR
05:59 -20.2 °C -21.1 °C 34347.6 hPa Calm     89 % 0 mm 0.0 W/m2 CLR
06:04 -20.2 °C -21.1 °C 34347.6 hPa Calm     89 % 0 mm 0.0 W/m2 CLR
06:09 -19.9 °C -20.8 °C 34347.6 hPa Calm     89 % 0 mm 0.0 W/m2 CLR
06:14 -19.9 °C -20.8 °C 34361.1 hPa Calm     89 % 0 mm 0.0 W/m2 CLR
06:19 -19.9 °C -20.8 °C 34347.6 hPa Calm     89 % 0 mm 0.0 W/m2 CLR
06:24 -20.2 °C -21 °C 34361.1 hPa Calm     90 % 0 mm 0.0 W/m2 CLR
06:29 -19.9 °C -20.8 °C 34361.1 hPa Calm     89 % 0 mm 0.0 W/m2 CLR
06:34 -20.2 °C -21.1 °C 34361.1 hPa Calm     89 % 0 mm 0.0 W/m2 CLR
06:39 -20.2 °C -21.1 °C 34361.1 hPa Calm     89 % 0 mm 0.0 W/m2 CLR
06:44 -20.2 °C -21.1 °C 34361.1 hPa Calm     89 % 0 mm 0.0 W/m2 CLR
06:49 -20.2 °C -21.1 °C 34361.1 hPa Calm     89 % 0 mm 0.0 W/m2 CLR
06:54 -19.9 °C -20.8 °C 34361.1 hPa Calm     89 % 0 mm 0.0 W/m2 CLR
06:59 -19.9 °C -20.8 °C 34361.1 hPa Calm     89 % 0 mm 0.0 W/m2 CLR
07:04 -19.9 °C -20.8 °C 34361.1 hPa Calm     89 % 0 mm 0.0 W/m2 CLR
07:09 -19.9 °C -20.8 °C 34361.1 hPa Calm     89 % 0 mm 0.0 W/m2 CLR
07:14 -19.9 °C -20.8 °C 34361.1 hPa Calm     89 % 0 mm 0.0 W/m2 CLR
07:19 -19.9 °C -20.8 °C 34361.1 hPa Calm     89 % 0 mm 0.0 W/m2 CLR
07:24 -19.9 °C -20.8 °C 34361.1 hPa Calm     89 % 0 mm 0.0 W/m2 CLR
07:29 -20.2 °C -21.1 °C 34361.1 hPa Calm     89 % 0 mm 0.0 W/m2 CLR
07:30 -19.9 °C -20.8 °C 34361.1 hPa Calm     89 % 0 mm 0.0 W/m2 CLR
07:35 -19.9 °C -20.8 °C 34361.1 hPa Calm     89 % 0 mm 0.0 W/m2 OVC
07:40 -20.2 °C -21 °C 34361.1 hPa Calm     90 % 0 mm 0.0 W/m2 OVC
07:45 -20.2 °C -21.1 °C 34361.1 hPa Calm     89 % 0 mm 7.0 W/m2 BKN
07:50 -20.2 °C -21 °C 34361.1 hPa Calm     90 % 0 mm 11.0 W/m2 BKN
07:55 -20.2 °C -21.1 °C 34361.1 hPa Calm     89 % 0 mm 14.0 W/m2 BKN
08:00 -20.2 °C -21.1 °C 34361.1 hPa Calm     89 % 0 mm 18.0 W/m2 BKN
08:05 -20.2 °C -21.1 °C 34361.1 hPa Calm     89 % 0 mm 21.0 W/m2 BKN
08:10 -20.2 °C -21.1 °C 34361.1 hPa Calm     89 % 0 mm 28.0 W/m2 BKN
08:15 -19.9 °C -20.8 °C 34361.1 hPa Calm     89 % 0 mm 35.0 W/m2 BKN
08:20 -19.9 °C -20.7 °C 34361.1 hPa Calm     90 % 0 mm 47.0 W/m2 SCT
08:25 -19.9 °C -20.8 °C 34361.1 hPa Calm     89 % 0 mm 54.0 W/m2 SCT
08:30 -19.6 °C -20.5 °C 34371.3 hPa Calm     89 % 0 mm 76.0 W/m2 FEW
08:35 -19.6 °C -20.5 °C 34371.3 hPa Calm     89 % 0 mm 90.0 W/m2 CLR
08:40 -19.6 °C -20.5 °C 34371.3 hPa Calm     89 % 0 mm 107.0 W/m2 CLR
08:45 -19.3 °C -20.2 °C 34384.8 hPa Calm     89 % 0 mm 132.0 W/m2 CLR
08:50 -19.3 °C -20.2 °C 34371.3 hPa Calm     89 % 0 mm 127.0 W/m2 CLR
08:55 -19 °C -19.9 °C 34384.8 hPa Calm     89 % 0 mm 142.0 W/m2 CLR
09:00 -19 °C -19.9 °C 34384.8 hPa Calm     88 % 0 mm 116.0 W/m2 CLR
09:05 -18.7 °C -19.7 °C 34384.8 hPa Calm     88 % 0 mm 172.0 W/m2 CLR
09:10 -18.7 °C -19.8 °C 34371.3 hPa Calm     87 % 0 mm 188.0 W/m2 CLR
09:15 -18.4 °C -19.6 °C 34384.8 hPa Calm     85 % 0 mm 202.0 W/m2 CLR
09:20 -18.1 °C -19.3 °C 34384.8 hPa Calm     85 % 0 mm 214.0 W/m2 CLR
09:25 -18.1 °C -19.3 °C 34384.8 hPa Calm     85 % 0 mm 230.0 W/m2 CLR
09:30 -18.1 °C -19.6 °C 34384.8 hPa Calm     82 % 0 mm 246.0 W/m2 CLR
09:35 -17.8 °C -19.5 °C 34384.8 hPa Calm     80 % 0 mm 262.0 W/m2 CLR
09:40 -17.4 °C -19.3 °C 34371.3 hPa Calm     78 % 0 mm 279.0 W/m2 CLR
09:45 -16.8 °C -18.8 °C 34384.8 hPa Calm     77 % 0 mm 297.0 W/m2 CLR
09:50 -16.2 °C -18.4 °C 34384.8 hPa Calm     76 % 0 mm 315.0 W/m2 CLR
09:55 -15.9 °C -18.2 °C 34384.8 hPa Calm     75 % 0 mm 329.0 W/m2 CLR
10:00 -15.6 °C -18.6 °C 34384.8 hPa WNW 29.8 km/h 29.8 km/h 68 % 0 mm 348.0 W/m2 CLR
10:05 -15.3 °C -18.5 °C 34384.8 hPa NW 10.3 km/h 10.3 km/h 66 % 0 mm 364.0 W/m2 CLR
10:10 -15 °C -18.6 °C 34384.8 hPa NW 23.8 km/h 23.8 km/h 63 % 0 mm 376.0 W/m2 CLR
10:15 -14.7 °C -18.3 °C 34384.8 hPa NNW 29.8 km/h 29.8 km/h 63 % 0 mm 388.0 W/m2 CLR
10:20 -14.4 °C -18.1 °C 34384.8 hPa NNW 12.9 km/h 12.9 km/h 62 % 0 mm 403.0 W/m2 CLR
10:25 -14.1 °C -17.9 °C 34384.8 hPa NW 26.9 km/h 26.9 km/h 61 % 0 mm 417.0 W/m2 CLR
10:30 -13.8 °C -17.7 °C 34384.8 hPa NW 26.9 km/h 26.9 km/h 61 % 0 mm 431.0 W/m2 CLR
10:35 -13.8 °C -17.8 °C 34384.8 hPa NNW 29.8 km/h 29.8 km/h 60 % 0 mm 445.0 W/m2 CLR
10:40 -13.8 °C -17.8 °C 34384.8 hPa NNW 23.8 km/h 23.8 km/h 60 % 0 mm 457.0 W/m2 CLR
10:45 -13.4 °C -17.8 °C 34384.8 hPa NW 23.8 km/h 23.8 km/h 58 % 0 mm 468.0 W/m2 CLR
10:50 -13.4 °C -17.6 °C 34384.8 hPa NW 17.9 km/h 17.9 km/h 59 % 0 mm 480.0 W/m2 CLR
10:55 -13.2 °C -17.4 °C 34384.8 hPa NNW 26.9 km/h 26.9 km/h 58 % 0 mm 490.0 W/m2 CLR
11:00 -13.2 °C -17.4 °C 34384.8 hPa NNW 25.9 km/h 25.9 km/h 58 % 0 mm 501.0 W/m2 CLR
11:05 -13.2 °C -17.4 °C 34384.8 hPa North 29.8 km/h 29.8 km/h 58 % 0 mm 513.0 W/m2 CLR
11:10 -12.8 °C -17.3 °C 34384.8 hPa NNW 29.8 km/h 29.8 km/h 57 % 0 mm 524.0 W/m2 CLR
11:15 -12.8 °C -17.3 °C 34384.8 hPa North 26.9 km/h 26.9 km/h 57 % 0 mm 534.0 W/m2 CLR
11:20 -12.6 °C -17.3 °C 34384.8 hPa North 29.8 km/h 29.8 km/h 55 % 0 mm 541.0 W/m2 CLR
11:25 -12.2 °C -17 °C 34384.8 hPa North 35.7 km/h 35.7 km/h 55 % 0 mm 552.0 W/m2 CLR
11:30 -12.2 °C -17 °C 34384.8 hPa NNW 26.9 km/h 26.9 km/h 55 % 0 mm 564.0 W/m2 CLR
11:35 -12.2 °C -17.2 °C 34384.8 hPa NNW 29.8 km/h 29.8 km/h 54 % 0 mm 573.0 W/m2 CLR
11:40 -12.2 °C -17.3 °C 34384.8 hPa North 29.8 km/h 29.8 km/h 53 % 0 mm 582.0 W/m2 CLR
11:45 -11.9 °C -16.9 °C 34384.8 hPa NNW 28.5 km/h 28.5 km/h 54 % 0 mm 587.0 W/m2 CLR
11:51 -11.9 °C -17 °C 34384.8 hPa NNW 31.1 km/h 31.1 km/h 53 % 0 mm 596.0 W/m2 CLR
11:56 -11.9 °C -17 °C 34384.8 hPa NNW 28.5 km/h 28.5 km/h 53 % 0 mm 601.0 W/m2 CLR
12:01 -11.9 °C -17 °C 34384.8 hPa NW 29.8 km/h 29.8 km/h 53 % 0 mm 610.0 W/m2 CLR
12:06 -11.9 °C -17.3 °C 34384.8 hPa NNW 29.8 km/h 29.8 km/h 51 % 0 mm 612.0 W/m2 CLR
12:11 -11.9 °C -17.2 °C 34384.8 hPa NW 17.9 km/h 17.9 km/h 52 % 0 mm 621.0 W/m2 CLR
12:16 -11.9 °C -17.2 °C 34384.8 hPa North 29.8 km/h 29.8 km/h 52 % 0 mm 624.0 W/m2 CLR
12:21 -11.6 °C -17.3 °C 34384.8 hPa NW 11.9 km/h 11.9 km/h 49 % 0 mm 631.0 W/m2 CLR
12:26 -11.6 °C -17.3 °C 34371.3 hPa NNW 26.9 km/h 26.9 km/h 49 % 0 mm 635.0 W/m2 CLR
12:31 -11.6 °C -17.3 °C 34371.3 hPa NNW 23.8 km/h 23.8 km/h 49 % 0 mm 638.0 W/m2 CLR
12:36 -11.3 °C -17.1 °C 34371.3 hPa Calm     49 % 0 mm 643.0 W/m2 CLR
12:41 -11.3 °C -16.9 °C 34371.3 hPa NNE 6 km/h 6 km/h 50 % 0 mm 649.0 W/m2 CLR
12:46 -11.3 °C -17.1 °C 34371.3 hPa North 29.8 km/h 29.8 km/h 49 % 0 mm 654.0 W/m2 CLR
12:51 -11.3 °C -16.9 °C 34371.3 hPa NNE 11.9 km/h 11.9 km/h 50 % 0 mm 659.0 W/m2 CLR
12:56 -11.6 °C -17.2 °C 34361.1 hPa North 23.8 km/h 23.8 km/h 50 % 0 mm 650.0 W/m2 CLR
13:01 -11.6 °C -17.2 °C 34361.1 hPa North 23.8 km/h 23.8 km/h 50 % 0 mm 663.0 W/m2 CLR
13:06 -11.3 °C -17.2 °C 34361.1 hPa NNE 29.8 km/h 29.8 km/h 48 % 0 mm 659.0 W/m2 CLR
13:11 -11 °C -16.9 °C 34361.1 hPa North 26.9 km/h 26.9 km/h 48 % 0 mm 659.0 W/m2 CLR
13:16 -10.7 °C -17 °C 34347.6 hPa WNW 20.9 km/h 20.9 km/h 46 % 0 mm 664.0 W/m2 CLR
13:21 -11 °C -17.4 °C 34347.6 hPa NNW 20.9 km/h 20.9 km/h 45 % 0 mm 663.0 W/m2 CLR
13:26 -11 °C -17.4 °C 34347.6 hPa NNW 32.8 km/h 32.8 km/h 45 % 0 mm 661.0 W/m2 CLR
13:31 -10.7 °C -17.3 °C 34347.6 hPa North 23.8 km/h 23.8 km/h 44 % 0 mm 659.0 W/m2 CLR
13:36 -10.7 °C -17.2 °C 34337.4 hPa North 29.8 km/h 29.8 km/h 45 % 0 mm 663.0 W/m2 CLR
13:41 -10.7 °C -17.3 °C 34337.4 hPa North 15 km/h 15 km/h 44 % 0 mm 659.0 W/m2 CLR
13:46 -10.7 °C -17.2 °C 34337.4 hPa NNE 20.9 km/h 20.9 km/h 45 % 0 mm 664.0 W/m2 CLR
13:51 -10.7 °C -17.3 °C 34337.4 hPa NW 18.2 km/h 18.2 km/h 44 % 0 mm 654.0 W/m2 CLR
13:56 -10.7 °C -17.7 °C 34327.3 hPa North 25.9 km/h 25.9 km/h 42 % 0 mm 652.0 W/m2 CLR
14:01 -10.7 °C -17.7 °C 34327.3 hPa NW 23.8 km/h 23.8 km/h 42 % 0 mm 656.0 W/m2 CLR
14:06 -10.7 °C -18.1 °C 34327.3 hPa NNW 26.9 km/h 26.9 km/h 40 % 0 mm 645.0 W/m2 CLR
14:11 -10.4 °C -17.6 °C 34327.3 hPa NNW 3.1 km/h 3.1 km/h 41 % 0 mm 640.0 W/m2 CLR
14:16 -10.1 °C -17.5 °C 34327.3 hPa North 29.8 km/h 29.8 km/h 40 % 0 mm 633.0 W/m2 CLR
14:21 -10.1 °C -17.7 °C 34327.3 hPa North 26.9 km/h 26.9 km/h 39 % 0 mm 633.0 W/m2 CLR
14:26 -10.1 °C -17.7 °C 34327.3 hPa NNW 23.8 km/h 23.8 km/h 39 % 0 mm 624.0 W/m2 CLR
14:31 -10.1 °C -17.5 °C 34313.7 hPa NNW 26.9 km/h 26.9 km/h 40 % 0 mm 613.0 W/m2 CLR
14:36 -10.1 °C -17.7 °C 34313.7 hPa NNW 20.9 km/h 20.9 km/h 39 % 0 mm 612.0 W/m2 CLR
14:41 -10.1 °C -17.5 °C 34313.7 hPa NNE 25.9 km/h 25.9 km/h 40 % 0 mm 605.0 W/m2 CLR
14:46 -10.4 °C -17.9 °C 34313.7 hPa North 29.8 km/h 29.8 km/h 39 % 0 mm 596.0 W/m2 CLR
14:51 -10.1 °C -17.5 °C 34313.7 hPa North 29.8 km/h 29.8 km/h 40 % 0 mm 587.0 W/m2 CLR
14:56 -10.1 °C -17.5 °C 34313.7 hPa NE 17.9 km/h 17.9 km/h 40 % 0 mm 580.0 W/m2 CLR
15:01 -10.1 °C -17.3 °C 34313.7 hPa NNW 29.8 km/h 29.8 km/h 41 % 0 mm 570.0 W/m2 CLR
15:06 -10.1 °C -17.5 °C 34313.7 hPa NE 20.9 km/h 20.9 km/h 40 % 0 mm 555.0 W/m2 CLR
15:11 -10.4 °C -17.6 °C 34313.7 hPa NNE 3.1 km/h 3.1 km/h 41 % 0 mm 541.0 W/m2 CLR
15:16 -10.4 °C -17.6 °C 34303.6 hPa NNE 29.8 km/h 29.8 km/h 41 % 0 mm 538.0 W/m2 CLR
15:21 -10.4 °C -17.6 °C 34303.6 hPa NNW 23.8 km/h 23.8 km/h 41 % 0 mm 527.0 W/m2 CLR
15:26 -10.4 °C -17.8 °C 34303.6 hPa ENE 3.1 km/h 3.1 km/h 40 % 0 mm 515.0 W/m2 CLR
15:31 -10.1 °C -17.5 °C 34303.6 hPa ENE 3.1 km/h 3.1 km/h 40 % 0 mm 504.0 W/m2 CLR
15:36 -10.4 °C -17.8 °C 34303.6 hPa North 32.8 km/h 32.8 km/h 40 % 0 mm 499.0 W/m2 CLR
15:41 -10.1 °C -17.7 °C 34303.6 hPa NNE 26.9 km/h 26.9 km/h 39 % 0 mm 480.0 W/m2 CLR
15:46 -10.1 °C -17.5 °C 34303.6 hPa NNE 29.8 km/h 29.8 km/h 40 % 0 mm 475.0 W/m2 CLR
15:51 -10.1 °C -17.7 °C 34303.6 hPa North 17.9 km/h 17.9 km/h 39 % 0 mm 455.0 W/m2 CLR
15:56 -10.1 °C -17.7 °C 34303.6 hPa North 29.8 km/h 29.8 km/h 39 % 0 mm 448.0 W/m2 CLR
16:01 -10.1 °C -18.1 °C 34303.6 hPa North 32.8 km/h 32.8 km/h 37 % 0 mm 443.0 W/m2 CLR
16:06 -9.8 °C -17.8 °C 34303.6 hPa North 35.7 km/h 35.7 km/h 37 % 0 mm 424.0 W/m2 CLR
16:11 -10.1 °C -17.9 °C 34303.6 hPa NNE 26.9 km/h 26.9 km/h 38 % 0 mm 410.0 W/m2 CLR
16:16 -9.8 °C -17.8 °C 34303.6 hPa North 33.6 km/h 33.6 km/h 37 % 0 mm 401.0 W/m2 CLR
16:21 -10.1 °C -18.1 °C 34303.6 hPa NNW 20.9 km/h 20.9 km/h 37 % 0 mm 390.0 W/m2 CLR
16:26 -10.1 °C -18.3 °C 34303.6 hPa North 29.8 km/h 29.8 km/h 36 % 0 mm 373.0 W/m2 CLR
16:31 -10.1 °C -18.3 °C 34303.6 hPa NNW 31.1 km/h 31.1 km/h 36 % 0 mm 359.0 W/m2 CLR
16:36 -10.1 °C -18.3 °C 34293.4 hPa NNW 32.8 km/h 32.8 km/h 36 % 0 mm 345.0 W/m2 CLR
16:41 -10.1 °C -18.3 °C 34293.4 hPa North 9 km/h 9 km/h 36 % 0 mm 330.0 W/m2 CLR
16:46 -10.1 °C -18.3 °C 34293.4 hPa North 32.8 km/h 32.8 km/h 36 % 0 mm 316.0 W/m2 CLR
16:51 -10.1 °C -18.3 °C 34293.4 hPa North 29.8 km/h 29.8 km/h 36 % 0 mm 301.0 W/m2 CLR
16:56 -10.1 °C -18.3 °C 34293.4 hPa NNE 25.9 km/h 25.9 km/h 36 % 0 mm 285.0 W/m2 CLR
17:01 -10.1 °C -18.3 °C 34293.4 hPa North 29.8 km/h 29.8 km/h 36 % 0 mm 267.0 W/m2 CLR
17:06 -10.1 °C -18.3 °C 34293.4 hPa NNE 29.8 km/h 29.8 km/h 36 % 0 mm 251.0 W/m2 CLR
17:11 -10.4 °C -18.8 °C 34293.4 hPa NNE 29.8 km/h 29.8 km/h 35 % 0 mm 232.0 W/m2 CLR
17:16 -10.4 °C -18.6 °C 34293.4 hPa NNW 20.9 km/h 20.9 km/h 36 % 0 mm 216.0 W/m2 CLR
17:21 -10.4 °C -18.6 °C 34293.4 hPa North 20.9 km/h 20.9 km/h 36 % 0 mm 199.0 W/m2 CLR
17:26 -10.7 °C -18.8 °C 34293.4 hPa NNW 26.9 km/h 26.9 km/h 36 % 0 mm 181.0 W/m2 CLR
17:31 -10.7 °C -19.1 °C 34293.4 hPa NNW 17.9 km/h 17.9 km/h 35 % 0 mm 163.0 W/m2 CLR
17:36 -10.7 °C -19.1 °C 34293.4 hPa North 17.9 km/h 17.9 km/h 35 % 0 mm 142.0 W/m2 CLR
17:41 -11 °C -19.3 °C 34293.4 hPa North 3.1 km/h 3.1 km/h 35 % 0 mm 128.0 W/m2 CLR
17:46 -11 °C -19.3 °C 34279.9 hPa NW 9 km/h 9 km/h 35 % 0 mm 114.0 W/m2 CLR
17:51 -11 °C -19.3 °C 34279.9 hPa NW 3.1 km/h 3.1 km/h 35 % 0 mm 97.0 W/m2 CLR
17:56 -11 °C -19.3 °C 34279.9 hPa NW 3.1 km/h   35 % 0 mm 79.0 W/m2 FEW
18:01 -11 °C -19.3 °C 34279.9 hPa Calm     35 % 0 mm 62.0 W/m2 SCT
18:06 -11.3 °C -19.4 °C 34293.4 hPa NNW 3.1 km/h   36 % 0 mm 53.0 W/m2 SCT
18:11 -11.3 °C -19.6 °C 34279.9 hPa Calm     35 % 0 mm 39.0 W/m2 BKN
18:16 -11.3 °C -19.6 °C 34279.9 hPa Calm     35 % 0 mm 28.0 W/m2 BKN
18:21 -11.9 °C -19.9 °C 34293.4 hPa Calm     36 % 0 mm 21.0 W/m2 BKN
18:26 -11.9 °C -19.9 °C 34279.9 hPa Calm     36 % 0 mm 16.0 W/m2 BKN
18:31 -12.2 °C -20.1 °C 34293.4 hPa Calm     37 % 0 mm 12.0 W/m2 BKN
18:36 -12.8 °C -20.2 °C 34293.4 hPa Calm     39 % 0 mm 11.0 W/m2 BKN
18:41 -13.2 °C -20.4 °C 34279.9 hPa Calm     39 % 0 mm 7.0 W/m2 BKN
18:46 -13.4 °C -20.6 °C 34279.9 hPa Calm     40 % 0 mm 5.0 W/m2 OVC
18:51 -13.8 °C -20.7 °C 34279.9 hPa Calm     41 % 0 mm 0.0 W/m2 OVC
18:56 -13.8 °C -20.4 °C 34279.9 hPa Calm     42 % 0 mm 0.0 W/m2 CLR
19:01 -13.8 °C -20.3 °C 34279.9 hPa Calm     43 % 0 mm 0.0 W/m2 CLR
19:06 -14.1 °C -20.6 °C 34293.4 hPa Calm     43 % 0 mm 0.0 W/m2 CLR
19:11 -14.1 °C -20.2 °C 34293.4 hPa Calm     45 % 0 mm 0.0 W/m2 CLR
19:16 -14.4 °C -20.5 °C 34293.4 hPa Calm     45 % 0 mm 0.0 W/m2 CLR
19:21 -14.1 °C -20.2 °C 34293.4 hPa Calm     45 % 0 mm 0.0 W/m2 CLR
19:26 -14.1 °C -19.9 °C 34293.4 hPa Calm     47 % 0 mm 0.0 W/m2 CLR
19:31 -14.1 °C -19.8 °C 34293.4 hPa Calm     48 % 0 mm 0.0 W/m2 CLR
19:36 -14.4 °C -19.9 °C 34293.4 hPa Calm     49 % 0 mm 0.0 W/m2 CLR
19:41 -14.7 °C -20.1 °C 34293.4 hPa Calm     50 % 0 mm 0.0 W/m2 CLR
19:47 -15 °C -20.3 °C 34293.4 hPa Calm     50 % 0 mm 0.0 W/m2 CLR
19:52 -15 °C -20.2 °C 34293.4 hPa Calm     51 % 0 mm 0.0 W/m2 CLR
19:57 -15.6 °C -20.7 °C 34293.4 hPa Calm     51 % 0 mm 0.0 W/m2 CLR
20:02 -15.6 °C -20.6 °C 34293.4 hPa Calm     52 % 0 mm 0.0 W/m2 CLR
20:07 -15.9 °C -20.7 °C 34293.4 hPa Calm     53 % 0 mm 0.0 W/m2 CLR
20:12 -15.9 °C -20.7 °C 34293.4 hPa Calm     53 % 0 mm 0.0 W/m2 CLR
20:17 -16.2 °C -21.1 °C 34293.4 hPa Calm     53 % 0 mm 0.0 W/m2 CLR
20:22 -16.2 °C -21.1 °C 34279.9 hPa Calm     53 % 0 mm 0.0 W/m2 CLR
20:27 -16.6 °C -21.3 °C 34293.4 hPa Calm     53 % 0 mm 0.0 W/m2 CLR
20:32 -16.6 °C -21.3 °C 34293.4 hPa Calm     53 % 0 mm 0.0 W/m2 CLR
20:37 -16.6 °C -21.2 °C 34279.9 hPa Calm     54 % 0 mm 0.0 W/m2 CLR
20:42 -16.8 °C -21.6 °C 34293.4 hPa WNW 3.1 km/h 3.1 km/h 53 % 0 mm 0.0 W/m2 CLR
20:47 -16.8 °C -21.8 °C 34293.4 hPa Calm     52 % 0 mm 0.0 W/m2 CLR
20:52 -16.8 °C -21.9 °C 34293.4 hPa WNW 3.1 km/h 3.1 km/h 51 % 0 mm 0.0 W/m2 CLR
20:57 -16.8 °C -21.9 °C 34293.4 hPa West 3.1 km/h 3.1 km/h 51 % 0 mm 0.0 W/m2 CLR
21:02 -16.8 °C -22.1 °C 34293.4 hPa WNW 3.1 km/h 3.1 km/h 50 % 0 mm 0.0 W/m2 CLR
21:07 -17.2 °C -22.4 °C 34293.4 hPa Calm     49 % 0 mm 0.0 W/m2 CLR
21:12 -17.2 °C -22.3 °C 34293.4 hPa Calm     50 % 0 mm 0.0 W/m2 CLR
21:17 -17.2 °C -22.2 °C 34293.4 hPa WNW 3.1 km/h 3.1 km/h 51 % 0 mm 0.0 W/m2 CLR
21:22 -17.2 °C -22.2 °C 34293.4 hPa WNW 29.8 km/h 29.8 km/h 51 % 0 mm 0.0 W/m2 CLR
21:27 -17.2 °C -22.4 °C 34279.9 hPa WNW 25.9 km/h 25.9 km/h 49 % 0 mm 0.0 W/m2 CLR
21:32 -17.2 °C -22.7 °C 34279.9 hPa NW 20.9 km/h 20.9 km/h 47 % 0 mm 0.0 W/m2 CLR
21:37 -17.2 °C -23.1 °C 34293.4 hPa NW 26.9 km/h 26.9 km/h 45 % 0 mm 0.0 W/m2 CLR
21:42 -17.2 °C -23.1 °C 34279.9 hPa NW 26.9 km/h 26.9 km/h 45 % 0 mm 0.0 W/m2 CLR
21:47 -17.4 °C -23.4 °C 34279.9 hPa NW 23.8 km/h 23.8 km/h 45 % 0 mm 0.0 W/m2 CLR
21:54 -17.4 °C -23.4 °C 34279.9 hPa NW 26.9 km/h 26.9 km/h 45 % 0 mm 0.0 W/m2 CLR
21:59 -17.4 °C -23.4 °C 34293.4 hPa WNW 20.9 km/h 20.9 km/h 45 % 0 mm 0.0 W/m2 CLR
22:04 -17.4 °C -23.5 °C 34293.4 hPa NW 26.9 km/h 26.9 km/h 44 % 0 mm 0.0 W/m2 CLR
22:09 -17.8 °C -23.8 °C 34293.4 hPa NW 32.8 km/h 32.8 km/h 44 % 0 mm 0.0 W/m2 CLR
22:14 -17.8 °C -23.8 °C 34293.4 hPa NW 29.8 km/h 29.8 km/h 44 % 0 mm 0.0 W/m2 CLR
22:19 -17.4 °C -23.4 °C 34279.9 hPa NW 29.8 km/h 29.8 km/h 45 % 0 mm 0.0 W/m2 CLR
22:24 -17.4 °C -23.4 °C 34279.9 hPa NW 29.8 km/h 29.8 km/h 45 % 0 mm 0.0 W/m2 CLR
22:29 -17.4 °C -23.4 °C 34293.4 hPa NW 31.1 km/h 31.1 km/h 45 % 0 mm 0.0 W/m2 CLR
22:34 -17.2 °C -23.1 °C 34293.4 hPa WNW 26.9 km/h 26.9 km/h 45 % 0 mm 0.0 W/m2 CLR
22:39 -17.2 °C -23.1 °C 34293.4 hPa NW 26.9 km/h 26.9 km/h 45 % 0 mm 0.0 W/m2 CLR
22:44 -17.2 °C -23.1 °C 34293.4 hPa NW 26.9 km/h 26.9 km/h 45 % 0 mm 0.0 W/m2 CLR
22:49 -17.2 °C -23.1 °C 34279.9 hPa NW 29.8 km/h 29.8 km/h 45 % 0 mm 0.0 W/m2 CLR
22:54 -17.4 °C -23.2 °C 34293.4 hPa NW 23.3 km/h 23.3 km/h 46 % 0 mm 0.0 W/m2 CLR
22:59 -17.4 °C -23.2 °C 34293.4 hPa NW 20.9 km/h 20.9 km/h 46 % 0 mm 0.0 W/m2 CLR
23:04 -17.4 °C -23.2 °C 34293.4 hPa WNW 23.8 km/h 23.8 km/h 46 % 0 mm 0.0 W/m2 CLR
23:09 -17.8 °C -23.5 °C 34293.4 hPa WNW 23.8 km/h 23.8 km/h 46 % 0 mm 0.0 W/m2 CLR
23:14 -17.8 °C -23.5 °C 34293.4 hPa WNW 20.8 km/h 20.8 km/h 46 % 0 mm 0.0 W/m2 CLR
23:19 -17.4 °C -23.2 °C 34293.4 hPa NW 29.8 km/h 29.8 km/h 46 % 0 mm 0.0 W/m2 CLR
23:24 -17.4 °C -23.2 °C 34293.4 hPa NW 29.8 km/h 29.8 km/h 46 % 0 mm 0.0 W/m2 CLR
23:29 -17.4 °C -23.2 °C 34293.4 hPa NW 29.8 km/h 29.8 km/h 46 % 0 mm 0.0 W/m2 CLR
23:34 -16.6 °C -22.2 °C 34293.4 hPa NNW 25.9 km/h 25.9 km/h 47 % 0 mm 0.0 W/m2 CLR
23:39 -16.2 °C -21.9 °C 34293.4 hPa NNW 35.7 km/h 35.7 km/h 47 % 0 mm 0.0 W/m2 CLR
23:44 -15.6 °C -21.3 °C 34293.4 hPa NW 31.1 km/h 31.1 km/h 47 % 0 mm 0.0 W/m2 CLR
23:49 -14.7 °C -20.5 °C 34293.4 hPa NW 29.8 km/h 29.8 km/h 47 % 0 mm 0.0 W/m2 CLR
23:54 -14.1 °C -19.9 °C 34293.4 hPa NW 32.8 km/h 32.8 km/h 47 % 0 mm 0.0 W/m2 CLR
23:59 -13.8 °C -19.6 °C 34293.4 hPa NW 32.8 km/h 32.8 km/h 47 % 0 mm 0.0 W/m2 CLR
Lo Temps de Massalio
Compliments of Weather Underground - 1.25 mb